Wetterdaten: Woche 25.01.16 - 31.01.16 (KW4)
Datum Zeit Temp. A. Feuchte A. Luftdruck Regen Wind Richtung Sonnenschein ET UV Solar Taupunkt Windchill Windben Empfang
25.01.2016 00:00 1,3 C 95 % 1032,4 hPa 0,0 l/m 0,4 km/h (0 Bft) NO 0,00 h 0,000 mm 0,0 UV-I 0 W/m 0,6 C 1,3 C 1,5 km/h (1 Bft) 99,29 %
25.01.2016 01:00 1,5 C 95 % 1031,9 hPa 0,0 l/m 1,1 km/h (1 Bft) S-SO 0,00 h 0,000 mm 0,0 UV-I 0 W/m 0,8 C 1,5 C 3,1 km/h (1 Bft) 97,57 %
25.01.2016 02:00 1,3 C 96 % 1031,5 hPa 0,0 l/m 3,4 km/h (1 Bft) S-SW 0,00 h 0,000 mm 0,0 UV-I 0 W/m 0,7 C 1,3 C 5,7 km/h (1 Bft) 99,38 %
25.01.2016 03:00 1,3 C 96 % 1031,0 hPa 0,6 l/m 2,1 km/h (1 Bft) N 0,00 h 0,000 mm 0,0 UV-I 0 W/m 0,7 C 1,3 C 4,8 km/h (1 Bft) 97,23 %
25.01.2016 04:00 1,2 C 97 % 1030,9 hPa 1,6 l/m 1,6 km/h (1 Bft) S-SW 0,00 h 0,000 mm 0,0 UV-I 0 W/m 0,8 C 1,2 C 3,5 km/h (1 Bft) 99,36 %
25.01.2016 05:00 1,3 C 97 % 1030,7 hPa 1,6 l/m 3,7 km/h (1 Bft) S-SW 0,00 h 0,000 mm 0,0 UV-I 0 W/m 0,8 C 1,3 C 5,9 km/h (2 Bft) 97,85 %
25.01.2016 06:00 1,4 C 97 % 1030,5 hPa 1,2 l/m 3,1 km/h (1 Bft) SW 0,00 h 0,000 mm 0,0 UV-I 0 W/m 1,0 C 1,4 C 5,5 km/h (1 Bft) 98,93 %
25.01.2016 07:00 2,0 C 98 % 1030,4 hPa 0,0 l/m 5,8 km/h (2 Bft) W 0,00 h 0,000 mm 0,0 UV-I 0 W/m 1,7 C 1,2 C 10,7 km/h (2 Bft) 97,57 %
25.01.2016 08:00 2,9 C 98 % 1030,9 hPa 0,0 l/m 7,9 km/h (2 Bft) W-SW 0,00 h 0,000 mm 0,0 UV-I 8 W/m 2,6 C 1,4 C 13,3 km/h (3 Bft) 99,20 %
25.01.2016 09:00 3,1 C 98 % 1031,1 hPa 0,0 l/m 4,0 km/h (1 Bft) W 0,00 h 0,000 mm 0,0 UV-I 16 W/m 2,8 C 3,0 C 7,4 km/h (2 Bft) 98,20 %
25.01.2016 10:00 3,0 C 98 % 1031,2 hPa 0,2 l/m 2,9 km/h (1 Bft) W 0,00 h 0,000 mm 0,0 UV-I 29 W/m 2,7 C 3,0 C 5,5 km/h (1 Bft) 99,16 %
25.01.2016 11:00 3,0 C 98 % 1031,2 hPa 1,0 l/m 3,4 km/h (1 Bft) W-NW 0,00 h 0,000 mm 0,0 UV-I 44 W/m 2,7 C 3,0 C 7,4 km/h (2 Bft) 97,71 %
25.01.2016 12:00 3,5 C 99 % 1030,7 hPa 1,4 l/m 3,6 km/h (1 Bft) W-NW 0,00 h 0,025 mm 0,0 UV-I 54 W/m 3,3 C 3,5 C 7,4 km/h (2 Bft) 98,83 %
25.01.2016 13:00 3,7 C 99 % 1030,0 hPa 0,6 l/m 2,4 km/h (1 Bft) W-NW 0,00 h 0,026 mm 0,0 UV-I 62 W/m 3,6 C 3,7 C 5,5 km/h (1 Bft) 98,67 %
25.01.2016 14:00 4,0 C 99 % 1029,5 hPa 0,0 l/m 3,2 km/h (1 Bft) W-NW 0,00 h 0,025 mm 0,0 UV-I 65 W/m 3,8 C 4,0 C 6,9 km/h (2 Bft) 98,84 %
25.01.2016 15:00 3,7 C 99 % 1029,6 hPa 0,0 l/m 1,0 km/h (0 Bft) W-NW 0,00 h 0,026 mm 0,0 UV-I 58 W/m 3,5 C 3,7 C 3,3 km/h (1 Bft) 98,96 %
25.01.2016 16:00 3,5 C 99 % 1029,5 hPa 0,0 l/m 0,8 km/h (0 Bft) W 0,00 h 0,025 mm 0,0 UV-I 13 W/m 3,3 C 3,5 C 3,5 km/h (1 Bft) 97,84 %
25.01.2016 17:00 3,6 C 99 % 1029,7 hPa 0,0 l/m 2,3 km/h (1 Bft) W-NW 0,00 h 0,000 mm 0,0 UV-I 0 W/m 3,5 C 3,6 C 5,3 km/h (1 Bft) 99,15 %
25.01.2016 18:00 3,9 C 99 % 1030,0 hPa 0,0 l/m 0,9 km/h (0 Bft) NW 0,00 h 0,000 mm 0,0 UV-I 0 W/m 3,7 C 3,9 C 3,1 km/h (1 Bft) 97,70 %
25.01.2016 19:00 3,4 C 99 % 1030,2 hPa 0,0 l/m 3,6 km/h (1 Bft) S 0,00 h 0,000 mm 0,0 UV-I 0 W/m 3,3 C 3,4 C 6,4 km/h (2 Bft) 99,43 %
25.01.2016 20:00 4,0 C 99 % 1030,1 hPa 0,0 l/m 3,2 km/h (1 Bft) W-SW 0,00 h 0,000 mm 0,0 UV-I 0 W/m 3,9 C 3,9 C 6,8 km/h (2 Bft) 97,58 %
25.01.2016 21:00 3,6 C 99 % 1029,9 hPa 0,0 l/m 1,4 km/h (1 Bft) W-NW 0,00 h 0,000 mm 0,0 UV-I 0 W/m 3,5 C 3,6 C 3,3 km/h (1 Bft) 99,21 %
25.01.2016 22:00 3,3 C 99 % 1029,8 hPa 0,0 l/m 0,2 km/h (0 Bft) N 0,00 h 0,000 mm 0,0 UV-I 0 W/m 3,2 C 3,3 C 0,9 km/h (0 Bft) 97,21 %
25.01.2016 23:00 3,0 C 99 % 1029,6 hPa 0,0 l/m 0,3 km/h (0 Bft) W-NW 0,00 h 0,000 mm 0,0 UV-I 0 W/m 2,9 C 3,0 C 1,2 km/h (1 Bft) 98,78 %
26.01.2016 00:00 2,5 C 99 % 1029,6 hPa 0,0 l/m 0,4 km/h (0 Bft) W-NW 0,00 h 0,000 mm 0,0 UV-I 0 W/m 2,4 C 2,5 C 1,6 km/h (1 Bft) 98,37 %
26.01.2016 01:00 2,5 C 99 % 1029,6 hPa 0,0 l/m 1,1 km/h (1 Bft) W-NW 0,00 h 0,000 mm 0,0 UV-I 0 W/m 2,3 C 2,5 C 2,8 km/h (1 Bft) 98,50 %
26.01.2016 02:00 2,2 C 99 % 1029,7 hPa 0,0 l/m 1,4 km/h (1 Bft) S 0,00 h 0,000 mm 0,0 UV-I 0 W/m 2,0 C 2,2 C 4,0 km/h (1 Bft) 99,19 %
26.01.2016 03:00 1,6 C 99 % 1029,2 hPa 0,0 l/m 1,0 km/h (0 Bft) S-SW 0,00 h 0,000 mm 0,0 UV-I 0 W/m 1,5 C 1,6 C 3,1 km/h (1 Bft) 98,13 %
26.01.2016 04:00 1,0 C 99 % 1029,5 hPa 0,0 l/m 0,6 km/h (0 Bft) W 0,00 h 0,000 mm 0,0 UV-I 0 W/m 0,9 C 1,0 C 2,3 km/h (1 Bft) 99,29 %
26.01.2016 05:00 0,5 C 99 % 1030,0 hPa 0,0 l/m 2,9 km/h (1 Bft) S 0,00 h 0,000 mm 0,0 UV-I 0 W/m 0,4 C 0,5 C 6,0 km/h (2 Bft) 98,07 %
26.01.2016 06:00 -0,2 C 99 % 1030,0 hPa 0,0 l/m 3,8 km/h (1 Bft) W 0,00 h 0,000 mm 0,0 UV-I 0 W/m -0,3 C -0,2 C 7,0 km/h (2 Bft) 99,34 %
26.01.2016 07:00 -0,5 C 99 % 1030,3 hPa 0,0 l/m 1,7 km/h (1 Bft) S 0,00 h 0,000 mm 0,0 UV-I 6 W/m -0,6 C -0,5 C 4,7 km/h (1 Bft) 98,06 %
26.01.2016 08:00 -0,4 C 99 % 1030,3 hPa 0,0 l/m 0,8 km/h (0 Bft) NW 0,00 h 0,000 mm 0,0 UV-I 47 W/m -0,5 C -0,4 C 3,2 km/h (1 Bft) 99,71 %
26.01.2016 09:00 0,2 C 99 % 1030,3 hPa 0,2 l/m 0,9 km/h (0 Bft) S-SW 0,17 h 0,025 mm 0,0 UV-I 111 W/m 0,1 C 0,2 C 3,3 km/h (1 Bft) 98,28 %
26.01.2016 10:00 0,9 C 99 % 1030,4 hPa 0,0 l/m 1,5 km/h (1 Bft) S 0,00 h 0,026 mm 0,0 UV-I 127 W/m 0,8 C 0,9 C 3,6 km/h (1 Bft) 99,44 %
26.01.2016 11:00 2,1 C 99 % 1030,2 hPa 0,0 l/m 4,2 km/h (1 Bft) S 0,00 h 0,051 mm 0,5 UV-I 163 W/m 1,9 C 2,0 C 8,0 km/h (2 Bft) 97,65 %
26.01.2016 12:00 3,7 C 99 % 1029,7 hPa 0,0 l/m 2,4 km/h (1 Bft) W-SW 0,00 h 0,050 mm 0,6 UV-I 161 W/m 3,5 C 3,7 C 5,1 km/h (1 Bft) 99,34 %
26.01.2016 13:00 4,4 C 97 % 1029,2 hPa 0,0 l/m 3,5 km/h (1 Bft) S-SW 0,50 h 0,051 mm 0,6 UV-I 217 W/m 4,0 C 4,4 C 6,5 km/h (2 Bft) 97,70 %
26.01.2016 14:00 5,9 C 92 % 1028,8 hPa 0,0 l/m 2,2 km/h (1 Bft) SW 0,75 h 0,076 mm 0,3 UV-I 198 W/m 4,6 C 5,9 C 4,8 km/h (1 Bft) 99,05 %
26.01.2016 15:00 6,2 C 91 % 1028,4 hPa 0,0 l/m 3,6 km/h (1 Bft) NO 0,92 h 0,077 mm 0,0 UV-I 119 W/m 4,9 C 6,2 C 5,6 km/h (1 Bft) 98,43 %
26.01.2016 16:00 4,5 C 95 % 1028,0 hPa 0,0 l/m 3,3 km/h (1 Bft) N-NO 0,08 h 0,050 mm 0,0 UV-I 23 W/m 3,6 C 4,3 C 6,3 km/h (2 Bft) 99,43 %
26.01.2016 17:00 1,9 C 97 % 1028,1 hPa 0,0 l/m 2,8 km/h (1 Bft) NO 0,00 h 0,000 mm 0,0 UV-I 0 W/m 1,6 C 1,9 C 4,9 km/h (1 Bft) 97,86 %
26.01.2016 18:00 0,6 C 98 % 1028,1 hPa 0,0 l/m 1,3 km/h (1 Bft) NO 0,00 h 0,000 mm 0,0 UV-I 0 W/m 0,3 C 0,6 C 2,5 km/h (1 Bft) 99,43 %
26.01.2016 19:00 -0,4 C 98 % 1027,9 hPa 0,0 l/m 0,6 km/h (0 Bft) S-SO 0,00 h 0,000 mm 0,0 UV-I 0 W/m -0,6 C -0,4 C 2,4 km/h (1 Bft) 97,73 %
26.01.2016 20:00 -0,6 C 98 % 1027,6 hPa 0,0 l/m 0,9 km/h (0 Bft) S-SO 0,00 h 0,000 mm 0,0 UV-I 0 W/m -0,9 C -0,6 C 2,7 km/h (1 Bft) 99,22 %
26.01.2016 21:00 -1,0 C 98 % 1027,6 hPa 0,0 l/m 0,1 km/h (0 Bft) N 0,00 h 0,000 mm 0,0 UV-I 0 W/m -1,2 C -1,0 C 0,5 km/h (0 Bft) 97,81 %
26.01.2016 22:00 -1,2 C 98 % 1027,3 hPa 0,0 l/m 1,4 km/h (1 Bft) S-SW 0,00 h 0,000 mm 0,0 UV-I 0 W/m -1,4 C -1,2 C 3,5 km/h (1 Bft) 99,36 %
26.01.2016 23:00 -1,3 C 98 % 1027,1 hPa 0,0 l/m 0,3 km/h (0 Bft) S-SW 0,00 h 0,000 mm 0,0 UV-I 0 W/m -1,6 C -1,3 C 1,1 km/h (0 Bft) 97,51 %
27.01.2016 00:00 -1,3 C 98 % 1027,0 hPa 0,0 l/m 1,8 km/h (1 Bft) S 0,00 h 0,000 mm 0,0 UV-I 0 W/m -1,6 C -1,3 C 4,8 km/h (1 Bft) 99,35 %
27.01.2016 01:00 -1,2 C 98 % 1026,6 hPa 0,0 l/m 1,4 km/h (1 Bft) S 0,00 h 0,000 mm 0,0 UV-I 0 W/m -1,5 C -1,2 C 3,9 km/h (1 Bft) 97,91 %
27.01.2016 02:00 -1,6 C 98 % 1026,3 hPa 0,0 l/m 0,7 km/h (0 Bft) S 0,00 h 0,000 mm 0,0 UV-I 0 W/m -1,9 C -1,6 C 2,4 km/h (1 Bft) 99,27 %
27.01.2016 03:00 -1,9 C 98 % 1026,1 hPa 0,0 l/m 0,6 km/h (0 Bft) SW 0,00 h 0,000 mm 0,0 UV-I 0 W/m -2,2 C -1,9 C 2,7 km/h (1 Bft) 98,08 %
27.01.2016 04:00 -2,0 C 98 % 1026,1 hPa 0,0 l/m 1,3 km/h (1 Bft) NW 0,00 h 0,000 mm 0,0 UV-I 0 W/m -2,2 C -2,0 C 4,5 km/h (1 Bft) 99,51 %
27.01.2016 05:00 -1,6 C 98 % 1026,3 hPa 0,0 l/m 3,2 km/h (1 Bft) S-SW 0,00 h 0,000 mm 0,0 UV-I 0 W/m -1,9 C -1,6 C 6,3 km/h (2 Bft) 98,00 %
27.01.2016 06:00 -1,8 C 98 % 1026,5 hPa 0,0 l/m 2,7 km/h (1 Bft) S-SO 0,00 h 0,000 mm 0,0 UV-I 0 W/m -2,1 C -1,8 C 5,2 km/h (1 Bft) 99,14 %
27.01.2016 07:00 -1,7 C 98 % 1026,6 hPa 0,0 l/m 2,0 km/h (1 Bft) NO 0,17 h 0,000 mm 0,0 UV-I 10 W/m -1,9 C -1,7 C 4,0 km/h (1 Bft) 97,50 %
27.01.2016 08:00 -1,4 C 98 % 1026,9 hPa 0,0 l/m 0,4 km/h (0 Bft) N 0,42 h 0,000 mm 0,0 UV-I 54 W/m -1,7 C -1,4 C 1,6 km/h (1 Bft) 99,17 %
27.01.2016 09:00 -0,5 C 98 % 1026,9 hPa 0,0 l/m 0,4 km/h (0 Bft) N 0,00 h 0,025 mm 0,0 UV-I 95 W/m -0,7 C -0,5 C 2,3 km/h (1 Bft) 97,64 %
27.01.2016 10:00 0,4 C 99 % 1026,5 hPa 0,0 l/m 2,5 km/h (1 Bft) NO 0,00 h 0,026 mm 0,4 UV-I 131 W/m 0,3 C 0,2 C 4,6 km/h (1 Bft) 99,15 %
27.01.2016 11:00 1,9 C 99 % 1026,1 hPa 0,0 l/m 2,5 km/h (1 Bft) O-SO 0,33 h 0,051 mm 0,6 UV-I 179 W/m 1,8 C 1,9 C 4,9 km/h (1 Bft) 97,52 %
27.01.2016 12:00 3,1 C 97 % 1025,5 hPa 0,0 l/m 1,3 km/h (1 Bft) O-SO 0,00 h 0,050 mm 0,7 UV-I 147 W/m 2,7 C 3,1 C 3,3 km/h (1 Bft) 98,75 %
27.01.2016 13:00 4,1 C 96 % 1024,9 hPa 0,0 l/m 0,8 km/h (0 Bft) N 0,25 h 0,051 mm 0,7 UV-I 194 W/m 3,5 C 4,1 C 2,9 km/h (1 Bft) 97,92 %
27.01.2016 14:00 5,9 C 91 % 1024,5 hPa 0,0 l/m 1,1 km/h (1 Bft) NO 0,50 h 0,076 mm 0,5 UV-I 173 W/m 4,5 C 5,9 C 3,6 km/h (1 Bft) 98,89 %
27.01.2016 15:00 5,4 C 94 % 1024,4 hPa 0,0 l/m 1,6 km/h (1 Bft) NO 0,00 h 0,077 mm 0,0 UV-I 76 W/m 4,4 C 5,4 C 4,1 km/h (1 Bft) 97,82 %
27.01.2016 16:00 5,1 C 96 % 1024,3 hPa 0,0 l/m 1,1 km/h (0 Bft) S-SO 0,00 h 0,025 mm 0,0 UV-I 22 W/m 4,5 C 5,1 C 4,5 km/h (1 Bft) 99,21 %
27.01.2016 17:00 4,3 C 97 % 1024,1 hPa 0,0 l/m 1,0 km/h (0 Bft) S-SW 0,00 h 0,000 mm 0,0 UV-I 0 W/m 3,9 C 4,3 C 2,9 km/h (1 Bft) 98,80 %
27.01.2016 18:00 3,6 C 97 % 1024,0 hPa 0,0 l/m 2,2 km/h (1 Bft) N-NO 0,00 h 0,000 mm 0,0 UV-I 0 W/m 3,2 C 3,6 C 4,3 km/h (1 Bft) 98,42 %
27.01.2016 19:00 2,9 C 98 % 1023,5 hPa 0,0 l/m 0,8 km/h (0 Bft) NO 0,00 h 0,000 mm 0,0 UV-I 0 W/m 2,6 C 2,9 C 2,4 km/h (1 Bft) 98,99 %
27.01.2016 20:00 2,6 C 98 % 1023,1 hPa 0,0 l/m 0,5 km/h (0 Bft) O 0,00 h 0,000 mm 0,0 UV-I 0 W/m 2,3 C 2,6 C 2,5 km/h (1 Bft) 97,66 %
27.01.2016 21:00 2,5 C 98 % 1022,9 hPa 0,0 l/m 0,9 km/h (0 Bft) O 0,00 h 0,000 mm 0,0 UV-I 0 W/m 2,2 C 2,5 C 3,1 km/h (1 Bft) 99,22 %
27.01.2016 22:00 2,6 C 99 % 1022,6 hPa 0,0 l/m 1,0 km/h (0 Bft) SO 0,00 h 0,000 mm 0,0 UV-I 0 W/m 2,4 C 2,6 C 3,7 km/h (1 Bft) 97,74 %
27.01.2016 23:00 2,5 C 99 % 1022,5 hPa 0,0 l/m 1,7 km/h (1 Bft) S 0,00 h 0,000 mm 0,0 UV-I 0 W/m 2,3 C 2,5 C 4,1 km/h (1 Bft) 98,59 %
28.01.2016 00:00 2,6 C 99 % 1022,3 hPa 0,0 l/m 1,7 km/h (1 Bft) S 0,00 h 0,000 mm 0,0 UV-I 0 W/m 2,5 C 2,6 C 4,3 km/h (1 Bft) 97,86 %
28.01.2016 01:00 2,8 C 99 % 1022,0 hPa 0,0 l/m 1,4 km/h (1 Bft) S 0,00 h 0,000 mm 0,0 UV-I 0 W/m 2,7 C 2,8 C 3,1 km/h (1 Bft) 98,64 %
28.01.2016 02:00 3,0 C 98 % 1021,8 hPa 0,0 l/m 2,5 km/h (1 Bft) NO 0,00 h 0,000 mm 0,0 UV-I 0 W/m 2,7 C 3,0 C 4,8 km/h (1 Bft) 98,34 %
28.01.2016 03:00 2,4 C 98 % 1021,4 hPa 0,0 l/m 0,8 km/h (0 Bft) S-SW 0,00 h 0,000 mm 0,0 UV-I 0 W/m 2,1 C 2,4 C 3,1 km/h (1 Bft) 98,16 %
28.01.2016 04:00 1,8 C 98 % 1021,1 hPa 0,0 l/m 1,0 km/h (0 Bft) SO 0,00 h 0,000 mm 0,0 UV-I 0 W/m 1,5 C 1,8 C 3,2 km/h (1 Bft) 99,21 %
28.01.2016 05:00 1,6 C 99 % 1021,0 hPa 0,0 l/m 0,6 km/h (0 Bft) SW 0,00 h 0,000 mm 0,0 UV-I 0 W/m 1,4 C 1,6 C 2,3 km/h (1 Bft) 97,52 %
28.01.2016 06:00 2,0 C 99 % 1021,6 hPa 0,0 l/m 1,2 km/h (1 Bft) S-SO 0,00 h 0,000 mm 0,0 UV-I 0 W/m 1,9 C 2,0 C 4,0 km/h (1 Bft) 99,14 %
28.01.2016 07:00 3,5 C 96 % 1022,3 hPa 0,0 l/m 6,9 km/h (2 Bft) S-SW 0,00 h 0,000 mm 0,0 UV-I 8 W/m 3,0 C 2,4 C 11,5 km/h (2 Bft) 97,99 %
28.01.2016 08:00 9,5 C 69 % 1022,8 hPa 0,0 l/m 15,4 km/h (3 Bft) S 0,00 h 0,000 mm 0,0 UV-I 26 W/m 4,2 C 4,4 C 24,5 km/h (4 Bft) 98,46 %
28.01.2016 09:00 11,4 C 61 % 1023,4 hPa 0,0 l/m 13,8 km/h (3 Bft) S-SW 0,00 h 0,051 mm 0,0 UV-I 64 W/m 4,1 C 7,3 C 23,3 km/h (4 Bft) 98,32 %
28.01.2016 10:00 11,8 C 59 % 1023,9 hPa 0,0 l/m 11,8 km/h (2 Bft) SW 0,00 h 0,101 mm 0,0 UV-I 72 W/m 4,0 C 8,7 C 19,4 km/h (3 Bft) 99,10 %
28.01.2016 11:00 12,6 C 56 % 1024,2 hPa 0,0 l/m 12,2 km/h (2 Bft) SW 0,00 h 0,102 mm 0,7 UV-I 149 W/m 4,1 C 9,5 C 21,2 km/h (4 Bft) 98,39 %
28.01.2016 12:00 13,4 C 52 % 1024,3 hPa 0,0 l/m 12,4 km/h (3 Bft) W-SW 0,00 h 0,127 mm 0,6 UV-I 124 W/m 3,9 C 10,3 C 21,0 km/h (4 Bft) 98,87 %
28.01.2016 13:00 13,4 C 50 % 1024,1 hPa 0,0 l/m 13,2 km/h (3 Bft) W 0,00 h 0,127 mm 0,3 UV-I 97 W/m 3,3 C 10,0 C 21,3 km/h (4 Bft) 98,30 %
28.01.2016 14:00 13,1 C 54 % 1024,2 hPa 0,0 l/m 11,0 km/h (2 Bft) W-SW 0,00 h 0,127 mm 0,0 UV-I 88 W/m 4,0 C 10,5 C 20,8 km/h (4 Bft) 98,57 %
28.01.2016 15:00 12,2 C 60 % 1024,7 hPa 0,0 l/m 10,5 km/h (2 Bft) W 0,00 h 0,102 mm 0,0 UV-I 49 W/m 4,7 C 9,8 C 19,6 km/h (3 Bft) 98,13 %
28.01.2016 16:00 11,2 C 67 % 1025,4 hPa 0,0 l/m 8,7 km/h (2 Bft) W 0,00 h 0,076 mm 0,0 UV-I 11 W/m 5,2 C 9,7 C 16,7 km/h (3 Bft) 98,85 %
28.01.2016 17:00 10,1 C 75 % 1025,8 hPa 0,0 l/m 6,4 km/h (2 Bft) W 0,00 h 0,051 mm 0,0 UV-I 0 W/m 5,9 C 9,6 C 13,2 km/h (3 Bft) 98,19 %
28.01.2016 18:00 9,3 C 80 % 1026,2 hPa 0,0 l/m 5,6 km/h (1 Bft) W 0,00 h 0,025 mm 0,0 UV-I 0 W/m 6,1 C 9,1 C 12,8 km/h (3 Bft) 98,66 %
28.01.2016 19:00 8,6 C 86 % 1026,7 hPa 0,0 l/m 4,7 km/h (1 Bft) W-SW 0,00 h 0,025 mm 0,0 UV-I 0 W/m 6,3 C 8,5 C 7,8 km/h (2 Bft) 98,57 %
28.01.2016 20:00 7,6 C 93 % 1027,0 hPa 0,6 l/m 2,5 km/h (1 Bft) W 0,00 h 0,000 mm 0,0 UV-I 0 W/m 6,5 C 7,6 C 4,1 km/h (1 Bft) 98,34 %
28.01.2016 21:00 7,0 C 96 % 1026,8 hPa 0,4 l/m 2,9 km/h (1 Bft) W-SW 0,00 h 0,000 mm 0,0 UV-I 0 W/m 6,4 C 7,0 C 4,8 km/h (1 Bft) 99,14 %
28.01.2016 22:00 6,6 C 97 % 1026,7 hPa 0,0 l/m 1,1 km/h (1 Bft) W-NW 0,00 h 0,000 mm 0,0 UV-I 0 W/m 6,2 C 6,6 C 3,2 km/h (1 Bft) 98,28 %
28.01.2016 23:00 6,6 C 97 % 1026,9 hPa 0,4 l/m 1,3 km/h (1 Bft) W-NW 0,00 h 0,000 mm 0,0 UV-I 0 W/m 6,1 C 6,6 C 3,2 km/h (1 Bft) 99,21 %
29.01.2016 00:00 6,4 C 98 % 1026,7 hPa 0,4 l/m 2,6 km/h (1 Bft) S-SW 0,00 h 0,000 mm 0,0 UV-I 0 W/m 6,1 C 6,4 C 4,5 km/h (1 Bft) 97,87 %
29.01.2016 01:00 6,3 C 98 % 1026,3 hPa 0,4 l/m 0,8 km/h (0 Bft) S-SW 0,00 h 0,000 mm 0,0 UV-I 0 W/m 6,0 C 6,3 C 2,5 km/h (1 Bft) 99,51 %
29.01.2016 02:00 6,1 C 98 % 1026,0 hPa 0,4 l/m 0,1 km/h (0 Bft) N 0,00 h 0,000 mm 0,0 UV-I 0 W/m 5,8 C 6,1 C 1,3 km/h (1 Bft) 97,80 %
29.01.2016 03:00 6,0 C 98 % 1025,7 hPa 1,4 l/m 0,0 km/h (0 Bft) N 0,00 h 0,000 mm 0,0 UV-I 0 W/m 5,7 C 6,0 C 0,7 km/h (0 Bft) 99,51 %
29.01.2016 04:00 5,9 C 98 % 1025,7 hPa 1,0 l/m 0,5 km/h (0 Bft) SO 0,00 h 0,000 mm 0,0 UV-I 0 W/m 5,6 C 5,9 C 2,4 km/h (1 Bft) 98,02 %
29.01.2016 05:00 5,9 C 99 % 1026,3 hPa 1,6 l/m 1,6 km/h (1 Bft) W-NW 0,00 h 0,000 mm 0,0 UV-I 0 W/m 5,7 C 5,9 C 4,0 km/h (1 Bft) 99,01 %
29.01.2016 06:00 5,8 C 99 % 1026,9 hPa 1,0 l/m 3,7 km/h (1 Bft) W-SW 0,00 h 0,000 mm 0,0 UV-I 0 W/m 5,6 C 5,8 C 6,0 km/h (2 Bft) 97,81 %
29.01.2016 07:00 5,8 C 98 % 1027,8 hPa 0,2 l/m 5,2 km/h (1 Bft) W 0,00 h 0,000 mm 0,0 UV-I 0 W/m 5,6 C 5,8 C 10,5 km/h (2 Bft) 99,39 %
29.01.2016 08:00 5,7 C 98 % 1028,5 hPa 0,0 l/m 5,3 km/h (1 Bft) W 0,00 h 0,000 mm 0,0 UV-I 16 W/m 5,4 C 5,7 C 12,8 km/h (3 Bft) 97,78 %
29.01.2016 09:00 5,8 C 98 % 1029,4 hPa 0,0 l/m 6,5 km/h (2 Bft) W 0,00 h 0,000 mm 0,0 UV-I 27 W/m 5,6 C 5,4 C 13,4 km/h (3 Bft) 99,44 %
29.01.2016 10:00 6,3 C 96 % 1030,0 hPa 0,0 l/m 8,1 km/h (2 Bft) W-SW 0,00 h 0,025 mm 0,0 UV-I 62 W/m 5,8 C 5,0 C 15,0 km/h (3 Bft) 97,90 %
29.01.2016 11:00 6,9 C 91 % 1029,9 hPa 0,0 l/m 10,1 km/h (2 Bft) W-SW 0,00 h 0,026 mm 0,5 UV-I 106 W/m 5,5 C 4,1 C 17,7 km/h (3 Bft) 98,91 %
29.01.2016 12:00 7,2 C 90 % 1029,4 hPa 0,0 l/m 5,7 km/h (1 Bft) W 0,00 h 0,051 mm 0,6 UV-I 131 W/m 5,6 C 7,0 C 12,4 km/h (3 Bft) 97,86 %
29.01.2016 13:00 7,2 C 90 % 1029,3 hPa 0,0 l/m 4,5 km/h (1 Bft) W-NW 0,00 h 0,050 mm 0,6 UV-I 145 W/m 5,6 C 7,1 C 12,2 km/h (2 Bft) 99,01 %
29.01.2016 14:00 7,1 C 89 % 1029,6 hPa 0,0 l/m 5,1 km/h (1 Bft) W 0,00 h 0,077 mm 0,3 UV-I 89 W/m 5,5 C 7,1 C 10,8 km/h (2 Bft) 97,80 %
29.01.2016 15:00 7,3 C 88 % 1029,6 hPa 0,0 l/m 5,3 km/h (1 Bft) W 0,67 h 0,050 mm 0,0 UV-I 123 W/m 5,5 C 7,2 C 10,2 km/h (2 Bft) 98,92 %
29.01.2016 16:00 6,8 C 91 % 1029,3 hPa 0,0 l/m 1,7 km/h (1 Bft) S 0,42 h 0,051 mm 0,0 UV-I 32 W/m 5,4 C 6,8 C 3,9 km/h (1 Bft) 97,88 %
29.01.2016 17:00 4,9 C 96 % 1029,1 hPa 0,0 l/m 1,6 km/h (1 Bft) SO 0,00 h 0,026 mm 0,0 UV-I 5 W/m 4,3 C 4,9 C 3,3 km/h (1 Bft) 99,22 %
29.01.2016 18:00 3,8 C 97 % 1029,0 hPa 0,0 l/m 2,3 km/h (1 Bft) SO 0,00 h 0,000 mm 0,0 UV-I 0 W/m 3,4 C 3,8 C 4,4 km/h (1 Bft) 98,42 %
29.01.2016 19:00 2,9 C 98 % 1029,2 hPa 0,0 l/m 1,3 km/h (1 Bft) SO 0,00 h 0,000 mm 0,0 UV-I 0 W/m 2,6 C 2,9 C 3,3 km/h (1 Bft) 98,66 %
29.01.2016 20:00 2,9 C 98 % 1029,4 hPa 0,0 l/m 4,8 km/h (1 Bft) S 0,00 h 0,000 mm 0,0 UV-I 0 W/m 2,6 C 2,9 C 7,6 km/h (2 Bft) 99,14 %
29.01.2016 21:00 3,4 C 98 % 1029,2 hPa 0,0 l/m 4,7 km/h (1 Bft) S 0,00 h 0,000 mm 0,0 UV-I 0 W/m 3,1 C 3,4 C 7,6 km/h (2 Bft) 98,01 %
29.01.2016 22:00 2,4 C 97 % 1028,9 hPa 0,0 l/m 2,1 km/h (1 Bft) O-NO 0,00 h 0,000 mm 0,0 UV-I 0 W/m 2,0 C 2,4 C 4,5 km/h (1 Bft) 99,37 %
29.01.2016 23:00 0,4 C 98 % 1028,3 hPa 0,0 l/m 1,4 km/h (1 Bft) NW 0,00 h 0,000 mm 0,0 UV-I 0 W/m 0,1 C 0,4 C 3,7 km/h (1 Bft) 97,75 %
30.01.2016 00:00 0,3 C 98 % 1028,0 hPa 0,0 l/m 3,2 km/h (1 Bft) S-SO 0,00 h 0,000 mm 0,0 UV-I 0 W/m 0,0 C 0,3 C 5,9 km/h (2 Bft) 96,87 %
30.01.2016 01:00 0,7 C 98 % 1027,8 hPa 0,0 l/m 1,7 km/h (1 Bft) S 0,00 h 0,000 mm 0,0 UV-I 0 W/m 0,5 C 0,7 C 4,3 km/h (1 Bft) 97,62 %
30.01.2016 02:00 0,2 C 98 % 1027,5 hPa 0,0 l/m 2,8 km/h (1 Bft) S-SW 0,00 h 0,000 mm 0,0 UV-I 0 W/m -0,1 C 0,2 C 6,4 km/h (2 Bft) 98,94 %
30.01.2016 03:00 1,3 C 99 % 1027,0 hPa 0,0 l/m 4,4 km/h (1 Bft) S 0,00 h 0,000 mm 0,0 UV-I 0 W/m 1,2 C 1,3 C 7,4 km/h (2 Bft) 98,42 %
30.01.2016 04:00 0,8 C 98 % 1026,5 hPa 0,0 l/m 2,0 km/h (1 Bft) S-SO 0,00 h 0,000 mm 0,0 UV-I 0 W/m 0,6 C 0,8 C 4,5 km/h (1 Bft) 98,33 %
30.01.2016 05:00 0,4 C 98 % 1025,9 hPa 0,0 l/m 1,2 km/h (1 Bft) S 0,00 h 0,000 mm 0,0 UV-I 0 W/m 0,1 C 0,4 C 2,9 km/h (1 Bft) 99,29 %
30.01.2016 06:00 0,8 C 98 % 1025,5 hPa 0,0 l/m 3,1 km/h (1 Bft) S 0,00 h 0,000 mm 0,0 UV-I 0 W/m 0,6 C 0,8 C 5,7 km/h (1 Bft) 97,87 %
30.01.2016 07:00 1,3 C 98 % 1025,0 hPa 0,0 l/m 2,9 km/h (1 Bft) S 0,00 h 0,000 mm 0,0 UV-I 9 W/m 1,0 C 1,3 C 5,7 km/h (1 Bft) 99,65 %
30.01.2016 08:00 0,1 C 98 % 1024,9 hPa 0,2 l/m 2,8 km/h (1 Bft) NO 0,67 h 0,000 mm 0,0 UV-I 71 W/m -0,1 C 0,1 C 4,9 km/h (1 Bft) 97,93 %
30.01.2016 09:00 0,4 C 98 % 1024,5 hPa 0,0 l/m 1,1 km/h (1 Bft) O-NO 1,00 h 0,025 mm 0,5 UV-I 208 W/m 0,1 C 0,4 C 3,1 km/h (1 Bft) 98,91 %
30.01.2016 10:00 0,6 C 98 % 1024,1 hPa 0,0 l/m 4,2 km/h (1 Bft) N-NO 1,00 h 0,077 mm 0,7 UV-I 251 W/m 0,2 C 0,3 C 7,1 km/h (2 Bft) 98,88 %
30.01.2016 11:00 1,2 C 98 % 1023,2 hPa 0,0 l/m 3,6 km/h (1 Bft) N-NO 0,83 h 0,076 mm 0,9 UV-I 287 W/m 1,0 C 1,2 C 7,1 km/h (2 Bft) 98,08 %
30.01.2016 12:00 2,6 C 99 % 1021,6 hPa 0,0 l/m 4,4 km/h (1 Bft) N-NO 0,67 h 0,101 mm 0,8 UV-I 238 W/m 2,4 C 2,6 C 10,5 km/h (2 Bft) 98,44 %
30.01.2016 13:00 3,1 C 99 % 1019,7 hPa 0,0 l/m 5,6 km/h (1 Bft) NO 0,67 h 0,077 mm 0,7 UV-I 227 W/m 2,9 C 2,9 C 10,3 km/h (2 Bft) 98,19 %
30.01.2016 14:00 3,4 C 99 % 1018,1 hPa 0,0 l/m 4,7 km/h (1 Bft) N-NO 0,17 h 0,076 mm 0,5 UV-I 144 W/m 3,3 C 3,4 C 9,7 km/h (2 Bft) 98,72 %
30.01.2016 15:00 3,2 C 99 % 1016,8 hPa 0,0 l/m 5,3 km/h (1 Bft) N-NO 0,00 h 0,051 mm 0,0 UV-I 72 W/m 3,0 C 2,7 C 10,5 km/h (2 Bft) 98,72 %
30.01.2016 16:00 2,5 C 99 % 1016,1 hPa 0,0 l/m 1,9 km/h (1 Bft) N-NO 0,00 h 0,025 mm 0,0 UV-I 17 W/m 2,3 C 2,5 C 5,6 km/h (1 Bft) 98,72 %
30.01.2016 17:00 1,8 C 99 % 1015,3 hPa 0,0 l/m 2,4 km/h (1 Bft) S 0,00 h 0,000 mm 0,0 UV-I 0 W/m 1,7 C 1,8 C 6,4 km/h (2 Bft) 98,14 %
30.01.2016 18:00 1,5 C 99 % 1014,2 hPa 0,0 l/m 3,2 km/h (1 Bft) W-NW 0,00 h 0,000 mm 0,0 UV-I 0 W/m 1,4 C 1,5 C 7,4 km/h (2 Bft) 99,02 %
30.01.2016 19:00 1,4 C 99 % 1013,5 hPa 0,0 l/m 1,7 km/h (1 Bft) NW 0,00 h 0,000 mm 0,0 UV-I 0 W/m 1,3 C 1,4 C 4,4 km/h (1 Bft) 97,87 %
30.01.2016 20:00 1,2 C 99 % 1013,3 hPa 0,0 l/m 2,7 km/h (1 Bft) SW 0,00 h 0,000 mm 0,0 UV-I 0 W/m 1,0 C 1,2 C 6,2 km/h (2 Bft) 99,32 %
30.01.2016 21:00 1,8 C 99 % 1013,3 hPa 0,0 l/m 5,4 km/h (1 Bft) S 0,00 h 0,000 mm 0,0 UV-I 0 W/m 1,7 C 1,5 C 10,5 km/h (2 Bft) 98,14 %
30.01.2016 22:00 3,5 C 99 % 1013,0 hPa 0,0 l/m 7,8 km/h (2 Bft) S 0,00 h 0,000 mm 0,0 UV-I 0 W/m 3,3 C 2,1 C 13,5 km/h (3 Bft) 99,36 %
30.01.2016 23:00 5,4 C 99 % 1012,7 hPa 1,2 l/m 12,2 km/h (2 Bft) W-SW 0,00 h 0,000 mm 0,0 UV-I 0 W/m 5,2 C 1,2 C 18,6 km/h (3 Bft) 97,77 %
31.01.2016 00:00 5,8 C 98 % 1012,3 hPa 1,0 l/m 8,3 km/h (2 Bft) W-SW 0,00 h 0,000 mm 0,0 UV-I 0 W/m 5,4 C 3,8 C 14,6 km/h (3 Bft) 99,36 %
31.01.2016 01:00 6,4 C 96 % 1012,0 hPa 0,4 l/m 17,5 km/h (3 Bft) SW 0,00 h 0,000 mm 0,0 UV-I 0 W/m 5,8 C -0,2 C 28,7 km/h (4 Bft) 97,82 %
31.01.2016 02:00 6,5 C 95 % 1012,4 hPa 1,8 l/m 18,1 km/h (3 Bft) W 0,00 h 0,000 mm 0,0 UV-I 0 W/m 5,7 C -0,4 C 30,3 km/h (5 Bft) 99,57 %
31.01.2016 03:00 5,2 C 87 % 1013,7 hPa 0,0 l/m 21,3 km/h (4 Bft) W-SW 0,00 h 0,000 mm 0,0 UV-I 0 W/m 3,3 C -3,3 C 41,3 km/h (6 Bft) 97,45 %
31.01.2016 04:00 4,1 C 90 % 1014,6 hPa 0,2 l/m 21,2 km/h (4 Bft) SW 0,00 h 0,025 mm 0,0 UV-I 0 W/m 2,5 C -4,8 C 34,2 km/h (5 Bft) 98,93 %
31.01.2016 05:00 3,2 C 92 % 1015,1 hPa 0,4 l/m 22,9 km/h (4 Bft) W-SW 0,00 h 0,026 mm 0,0 UV-I 0 W/m 2,1 C -6,5 C 37,4 km/h (5 Bft) 97,54 %
31.01.2016 06:00 2,5 C 94 % 1015,8 hPa 0,4 l/m 20,1 km/h (4 Bft) SW 0,00 h 0,025 mm 0,0 UV-I 0 W/m 1,6 C -6,5 C 35,5 km/h (5 Bft) 99,08 %
31.01.2016 07:00 2,4 C 94 % 1016,3 hPa 0,4 l/m 17,9 km/h (3 Bft) SW 0,00 h 0,000 mm 0,0 UV-I 4 W/m 1,6 C -5,5 C 30,7 km/h (5 Bft) 98,04 %
31.01.2016 08:00 2,0 C 95 % 1016,8 hPa 1,2 l/m 17,0 km/h (3 Bft) W 0,00 h 0,000 mm 0,0 UV-I 9 W/m 1,2 C -5,7 C 28,4 km/h (4 Bft) 98,28 %
31.01.2016 09:00 1,7 C 97 % 1016,7 hPa 0,6 l/m 10,1 km/h (2 Bft) W-SW 0,00 h 0,000 mm 0,0 UV-I 46 W/m 1,2 C -1,6 C 17,7 km/h (3 Bft) 98,69 %
31.01.2016 10:00 2,6 C 96 % 1016,4 hPa 0,0 l/m 11,9 km/h (2 Bft) W-SW 0,00 h 0,026 mm 0,0 UV-I 102 W/m 2,0 C -1,8 C 20,2 km/h (4 Bft) 98,20 %
31.01.2016 11:00 3,6 C 94 % 1015,9 hPa 0,0 l/m 13,6 km/h (3 Bft) SW 0,08 h 0,050 mm 0,5 UV-I 146 W/m 2,6 C -1,8 C 23,7 km/h (4 Bft) 98,36 %
31.01.2016 12:00 4,6 C 91 % 1015,1 hPa 0,0 l/m 14,4 km/h (3 Bft) W-SW 0,00 h 0,077 mm 0,5 UV-I 149 W/m 3,3 C -1,1 C 24,7 km/h (4 Bft) 97,86 %
31.01.2016 13:00 4,8 C 91 % 1014,7 hPa 0,0 l/m 14,5 km/h (3 Bft) W-SW 0,00 h 0,076 mm 0,0 UV-I 72 W/m 3,4 C -0,9 C 23,2 km/h (4 Bft) 98,99 %
31.01.2016 14:00 4,4 C 93 % 1014,6 hPa 0,2 l/m 14,2 km/h (3 Bft) SW 0,00 h 0,051 mm 0,0 UV-I 35 W/m 3,4 C -1,1 C 23,3 km/h (4 Bft) 98,18 %
31.01.2016 15:00 3,7 C 93 % 1015,0 hPa 1,6 l/m 16,3 km/h (3 Bft) W-SW 0,00 h 0,025 mm 0,0 UV-I 15 W/m 2,7 C -3,1 C 28,3 km/h (4 Bft) 98,73 %
31.01.2016 16:00 2,9 C 94 % 1015,0 hPa 1,2 l/m 13,4 km/h (3 Bft) S-SW 0,00 h 0,025 mm 0,0 UV-I 8 W/m 2,1 C -2,5 C 23,2 km/h (4 Bft) 97,87 %
31.01.2016 17:00 2,5 C 95 % 1015,4 hPa 1,0 l/m 11,7 km/h (2 Bft) S 0,00 h 0,000 mm 0,0 UV-I 0 W/m 1,8 C -1,8 C 20,5 km/h (4 Bft) 99,42 %
31.01.2016 18:00 2,4 C 95 % 1015,5 hPa 0,4 l/m 10,7 km/h (2 Bft) S-SW 0,00 h 0,000 mm 0,0 UV-I 0 W/m 1,7 C -1,2 C 17,8 km/h (3 Bft) 97,44 %
31.01.2016 19:00 2,4 C 96 % 1015,3 hPa 0,8 l/m 5,5 km/h (1 Bft) S-SW 0,00 h 0,000 mm 0,0 UV-I 0 W/m 1,8 C 2,3 C 9,8 km/h (2 Bft) 99,65 %
31.01.2016 20:00 2,4 C 97 % 1014,7 hPa 0,8 l/m 1,4 km/h (1 Bft) S-SW 0,00 h 0,000 mm 0,0 UV-I 0 W/m 1,9 C 2,4 C 4,0 km/h (1 Bft) 97,48 %
31.01.2016 21:00 2,5 C 98 % 1014,4 hPa 1,6 l/m 2,1 km/h (1 Bft) S 0,00 h 0,000 mm 0,0 UV-I 0 W/m 2,2 C 2,5 C 4,8 km/h (1 Bft) 99,65 %
31.01.2016 22:00 2,6 C 98 % 1013,7 hPa 1,2 l/m 2,2 km/h (1 Bft) NO 0,00 h 0,000 mm 0,0 UV-I 0 W/m 2,3 C 2,6 C 4,3 km/h (1 Bft) 97,74 %
31.01.2016 23:00 2,5 C 98 % 1012,8 hPa 2,8 l/m 4,2 km/h (1 Bft) NO 0,00 h 0,000 mm 0,0 UV-I 0 W/m 2,2 C 2,5 C 6,3 km/h (2 Bft) 99,30 %
Min-Datum _ 27.01.16 28.01.16 31.01.16 - 25.01.16 - - - - - 27.01.16 31.01.16 25.01.16 30.01.16
_ Min-Zeit 03:55 13:05 00:40 - 00:00 - - - - - 04:10 06:15 00:00 00:05
Minimum _ -2,1 C 50 % 1012,0 hPa - 0,0 km/h (0 Bft) - - - - - -2,4 C -8,0 C 0,0 km/h (0 Bft) 72,37 %
Max-Datum _ 28.01.16 25.01.16 25.01.16 31.01.16 31.01.16 - 27.01.16 28.01.16 30.01.16 30.01.16 28.01.16 28.01.16 31.01.16 25.01.16
_ Max-Zeit 12:45 11:45 00:20 23:30 03:15 - 11:15 12:00 11:10 11:20 20:15 12:25 03:10 00:05
Maximum _ 13,7 C 99 % 1032,5 hPa 2,8 l/m 27,1 km/h
W-SW (4 Bft)
- 0,17 h 0,127 mm 1,0 UV-I 361 W/m 6,7 C 11,7 C 54,7 km/h
W-SW (7 Bft)
100,00 %
Durchschnitt _ 3,4 C 95 % 1024,7 hPa #35,6 l/m 4,6 km/h (1 Bft) W #10:15 h #3,098 mm 0,6 UV-I 89 W/m 2,5 C 2,4 C 8,8 km/h (2 Bft) 98,52 %